Time;durP1;ratioP1;P1;durP2;ratioP2;P2;SDS_P1;SDS_P2;PMS_P1;PMS_P2;Temp;Humidity;BMP_temperature;BMP_pressure;BME280_temperature;BME280_humidity;BME280_pressure;Samples;Min_cycle;Max_cycle;Signal;HPM_P1;HPM_P2
2021/01/01 00:00:50;;;;;;;17.77;14.27;;;1.30;99.90;;;;;;5016199;28;20245;-75
2021/01/01 00:03:16;;;;;;;19.90;16.03;;;1.30;99.90;;;;;;4997614;28;20199;-75
2021/01/01 00:05:43;;;;;;;21.27;16.30;;;1.30;99.90;;;;;;5015847;28;20270;-75
2021/01/01 00:08:09;;;;;;;28.33;18.27;;;1.30;99.90;;;;;;5016263;28;20895;-75
2021/01/01 00:10:35;;;;;;;21.10;15.40;;;1.30;99.90;;;;;;5016218;28;20230;-75
2021/01/01 00:13:01;;;;;;;20.90;16.57;;;1.30;99.90;;;;;;5016243;28;20187;-75
2021/01/01 00:15:27;;;;;;;19.37;14.67;;;1.30;99.90;;;;;;5015877;28;20286;-74
2021/01/01 00:17:52;;;;;;;21.60;15.53;;;1.30;99.90;;;;;;5015926;28;20190;-75
2021/01/01 00:20:18;;;;;;;21.07;16.60;;;1.30;99.90;;;;;;5015964;28;20203;-75
2021/01/01 00:22:44;;;;;;;19.07;15.27;;;1.30;99.90;;;;;;5015922;28;20171;-75
2021/01/01 00:25:10;;;;;;;16.63;14.23;;;1.30;99.90;;;;;;5015888;28;20296;-75
2021/01/01 00:27:37;;;;;;;21.50;16.17;;;1.30;99.90;;;;;;5015650;28;20194;-75
2021/01/01 00:30:07;;;;;;;33.13;21.07;;;1.30;99.90;;;;;;5015831;28;20214;-75
2021/01/01 00:32:33;;;;;;;31.20;20.67;;;1.30;99.90;;;;;;5016073;28;20175;-75
2021/01/01 00:34:59;;;;;;;36.47;23.47;;;1.30;99.90;;;;;;4998306;28;20963;-75
2021/01/01 00:37:25;;;;;;;33.50;21.90;;;1.30;99.90;;;;;;5015765;28;20175;-75
2021/01/01 00:39:51;;;;;;;29.93;20.40;;;1.30;99.90;;;;;;4998160;28;20191;-74
2021/01/01 00:42:16;;;;;;;72.67;40.97;;;1.30;99.90;;;;;;5015572;28;20179;-75
2021/01/01 00:44:42;;;;;;;103.00;56.47;;;1.40;99.90;;;;;;5015084;28;20578;-75
2021/01/01 00:47:11;;;;;;;92.73;49.77;;;1.40;99.90;;;;;;5015366;28;20527;-75
2021/01/01 00:49:37;;;;;;;92.43;51.83;;;1.40;99.90;;;;;;5015119;28;20179;-75
2021/01/01 00:52:04;;;;;;;88.90;49.33;;;1.50;99.90;;;;;;5015349;28;20184;-74
2021/01/01 00:54:31;;;;;;;84.13;50.13;;;1.50;99.90;;;;;;4997435;28;20667;-75
2021/01/01 00:56:57;;;;;;;90.43;49.70;;;1.60;99.90;;;;;;5014998;28;20210;-75
2021/01/01 00:59:23;;;;;;;87.43;48.87;;;1.60;99.90;;;;;;5015041;28;20183;-75
2021/01/01 01:01:49;;;;;;;85.57;49.27;;;1.50;99.90;;;;;;5014794;28;20203;-74
2021/01/01 01:04:15;;;;;;;84.50;49.40;;;1.60;99.90;;;;;;5014875;28;20245;-75
2021/01/01 01:06:41;;;;;;;79.07;46.70;;;1.60;99.90;;;;;;4997555;28;20179;-75
2021/01/01 01:09:06;;;;;;;67.20;37.23;;;1.60;99.90;;;;;;5014808;28;20657;-75
2021/01/01 01:11:32;;;;;;;71.87;40.80;;;1.60;99.90;;;;;;5014872;28;20229;-75
2021/01/01 01:13:59;;;;;;;81.93;44.23;;;1.60;99.90;;;;;;5014595;28;20600;-74
2021/01/01 01:16:28;;;;;;;78.57;43.47;;;1.60;99.90;;;;;;5015009;28;20183;-75
2021/01/01 01:18:54;;;;;;;78.10;43.67;;;1.60;99.90;;;;;;5014606;28;20183;-75
2021/01/01 01:21:21;;;;;;;79.03;44.60;;;1.50;99.90;;;;;;5014587;28;20199;-74
2021/01/01 01:23:47;;;;;;;73.30;40.73;;;1.50;99.90;;;;;;5014509;28;20612;-75
2021/01/01 01:26:14;;;;;;;75.07;40.67;;;1.50;99.90;;;;;;5014485;28;20656;-75
2021/01/01 01:28:39;;;;;;;72.17;40.53;;;1.60;99.90;;;;;;5014495;28;20545;-75
2021/01/01 01:31:05;;;;;;;78.97;42.37;;;1.50;99.90;;;;;;5014230;28;20191;-75
2021/01/01 01:33:31;;;;;;;75.70;40.27;;;1.50;99.90;;;;;;5014367;28;20195;-75
2021/01/01 01:35:58;;;;;;;66.70;38.87;;;1.40;99.90;;;;;;5016836;28;20194;-75
2021/01/01 01:38:23;;;;;;;63.77;35.87;;;1.50;99.90;;;;;;5000632;28;20260;-75
2021/01/01 01:40:49;;;;;;;55.70;30.83;;;1.50;99.90;;;;;;5014171;28;20338;-74
2021/01/01 01:43:16;;;;;;;41.97;25.63;;;1.50;99.90;;;;;;5014099;28;20188;-74
2021/01/01 01:45:42;;;;;;;38.40;24.03;;;1.50;99.90;;;;;;5014432;28;20186;-75
2021/01/01 01:48:12;;;;;;;47.50;26.47;;;1.60;99.90;;;;;;4996506;28;20551;-74
2021/01/01 01:50:38;;;;;;;45.30;25.00;;;1.60;99.90;;;;;;5016723;28;20199;-75
2021/01/01 01:53:05;;;;;;;58.27;31.20;;;1.60;99.90;;;;;;5013972;28;20215;-74
2021/01/01 01:55:32;;;;;;;50.77;30.20;;;1.60;99.90;;;;;;5014147;28;20280;-75
2021/01/01 01:57:58;;;;;;;63.20;35.60;;;1.70;99.90;;;;;;5013972;28;20305;-75
2021/01/01 02:02:55;;;;;;;61.70;35.67;;;1.70;99.90;;;;;;5013638;28;20181;-75
2021/01/01 02:05:22;;;;;;;57.83;32.50;;;1.70;99.90;;;;;;5013683;28;20195;-75
2021/01/01 02:07:48;;;;;;;54.43;32.43;;;1.70;99.90;;;;;;5014047;28;20171;-75
2021/01/01 02:10:14;;;;;;;54.50;31.23;;;1.70;99.90;;;;;;5013874;28;20183;-75
2021/01/01 02:12:42;;;;;;;47.60;27.87;;;1.70;99.90;;;;;;5013976;28;20233;-75
2021/01/01 02:15:08;;;;;;;49.20;28.07;;;1.80;99.90;;;;;;5013437;28;20222;-75
2021/01/01 02:17:33;;;;;;;35.10;21.90;;;1.80;99.90;;;;;;5013636;28;20185;-74
2021/01/01 02:20:12;;;;;;;38.20;23.57;;;1.80;99.90;;;;;;5013521;28;20554;-75
2021/01/01 02:22:38;;;;;;;39.43;23.60;;;1.80;99.90;;;;;;5013497;28;20254;-75
2021/01/01 02:25:06;;;;;;;39.43;23.20;;;1.80;99.90;;;;;;5013364;28;20222;-75
2021/01/01 02:27:32;;;;;;;38.40;22.67;;;1.80;99.90;;;;;;5013184;28;20608;-74
2021/01/01 02:29:58;;;;;;;39.70;23.90;;;1.80;99.90;;;;;;5013691;28;20306;-75
2021/01/01 02:32:24;;;;;;;42.10;25.27;;;1.80;99.90;;;;;;5013320;28;20187;-75
2021/01/01 02:34:49;;;;;;;48.93;30.03;;;1.80;99.90;;;;;;5013180;28;20265;-75
2021/01/01 02:37:15;;;;;;;41.60;25.73;;;1.70;99.90;;;;;;4995605;28;20175;-75
2021/01/01 02:39:41;;;;;;;48.87;27.37;;;1.70;99.90;;;;;;5013166;28;21061;-75
2021/01/01 02:42:08;;;;;;;45.07;27.53;;;1.70;99.90;;;;;;5013362;28;20278;-75
2021/01/01 02:44:34;;;;;;;43.23;25.70;;;1.70;99.90;;;;;;5013254;28;20283;-74
2021/01/01 02:47:05;;;;;;;43.13;25.90;;;1.70;99.90;;;;;;5013111;28;20258;-75
2021/01/01 02:49:31;;;;;;;38.87;24.00;;;1.70;99.90;;;;;;5013060;28;20222;-75
2021/01/01 02:52:02;;;;;;;40.90;24.97;;;1.70;99.90;;;;;;5013009;28;20180;-75
2021/01/01 02:54:28;;;;;;;31.80;20.43;;;1.70;99.90;;;;;;5012850;28;20704;-75
2021/01/01 02:56:54;;;;;;;31.47;20.13;;;1.80;99.90;;;;;;5008540;28;20253;-75
2021/01/01 02:59:20;;;;;;;31.13;19.57;;;1.80;99.90;;;;;;5009208;28;20269;-75
2021/01/01 03:01:46;;;;;;;28.77;17.90;;;1.80;99.90;;;;;;5010916;28;20241;-76
2021/01/01 03:04:15;;;;;;;25.40;16.83;;;1.80;99.90;;;;;;5010870;28;20670;-75
2021/01/01 03:06:41;;;;;;;22.77;16.13;;;1.80;99.90;;;;;;5012505;28;20258;-75
2021/01/01 03:09:08;;;;;;;22.67;15.70;;;1.80;99.90;;;;;;5012637;28;20761;-75
2021/01/01 03:11:34;;;;;;;20.47;14.40;;;1.80;99.90;;;;;;5012756;28;20187;-75
2021/01/01 03:13:59;;;;;;;13.80;11.30;;;1.90;99.90;;;;;;5011457;28;20689;-75
2021/01/01 03:16:25;;;;;;;13.20;10.47;;;1.90;99.90;;;;;;5012172;28;20179;-75
2021/01/01 03:18:51;;;;;;;13.60;10.63;;;1.90;99.90;;;;;;5012794;28;20174;-75
2021/01/01 03:21:20;;;;;;;10.83;9.07;;;1.90;99.90;;;;;;5012529;28;20601;-75
2021/01/01 03:23:47;;;;;;;15.43;12.07;;;2.00;99.90;;;;;;5012674;28;20213;-74
2021/01/01 03:26:13;;;;;;;18.47;12.87;;;2.00;99.90;;;;;;4994837;28;20254;-75
2021/01/01 03:28:39;;;;;;;20.87;14.03;;;2.00;99.90;;;;;;4994846;28;20179;-74
2021/01/01 03:31:05;;;;;;;20.50;13.67;;;2.00;99.90;;;;;;5012378;28;20266;-75
2021/01/01 03:33:31;;;;;;;18.73;12.67;;;2.00;99.90;;;;;;4994751;28;20266;-74
2021/01/01 03:35:57;;;;;;;22.73;13.80;;;1.90;99.90;;;;;;5012619;28;20183;-75
2021/01/01 03:38:22;;;;;;;16.97;11.50;;;2.00;99.90;;;;;;5012142;28;20606;-75
2021/01/01 03:40:49;;;;;;;17.13;12.07;;;1.90;99.90;;;;;;5012307;28;20202;-74
2021/01/01 03:43:14;;;;;;;15.60;11.70;;;1.90;99.90;;;;;;5012101;28;20171;-75
2021/01/01 03:45:40;;;;;;;16.37;12.10;;;1.90;99.90;;;;;;5017104;28;20190;-75
2021/01/01 03:48:07;;;;;;;16.80;12.20;;;1.90;99.90;;;;;;5012178;28;20183;-75
2021/01/01 03:50:33;;;;;;;22.33;14.47;;;1.80;99.90;;;;;;5012297;28;20649;-75
2021/01/01 03:52:59;;;;;;;26.83;16.57;;;1.80;99.90;;;;;;5012159;28;20237;-76
2021/01/01 03:55:26;;;;;;;20.57;13.37;;;1.80;99.90;;;;;;5012420;28;20253;-75
2021/01/01 03:57:52;;;;;;;71.87;30.57;;;1.90;99.90;;;;;;5012203;28;20233;-75
2021/01/01 04:00:18;;;;;;;90.37;54.47;;;1.90;99.90;;;;;;5011910;28;20606;-75
2021/01/01 04:02:44;;;;;;;37.23;23.07;;;1.80;99.90;;;;;;5011487;28;20197;-75
2021/01/01 04:05:10;;;;;;;23.27;15.80;;;1.80;99.90;;;;;;5009704;28;20255;-74
2021/01/01 04:07:37;;;;;;;23.20;16.53;;;1.80;99.90;;;;;;5010452;28;20243;-74
2021/01/01 04:10:03;;;;;;;25.37;14.27;;;1.70;99.90;;;;;;5011060;28;20579;-75
2021/01/01 04:12:29;;;;;;;26.77;15.40;;;1.70;99.90;;;;;;5008205;28;20175;-75
2021/01/01 04:14:54;;;;;;;23.40;15.17;;;1.70;99.90;;;;;;5010674;28;20214;-75
2021/01/01 04:17:20;;;;;;;27.23;16.77;;;1.80;99.90;;;;;;5010744;28;20176;-74
2021/01/01 04:19:46;;;;;;;22.37;15.50;;;1.80;99.90;;;;;;5009429;28;20179;-76
2021/01/01 04:22:11;;;;;;;27.57;17.43;;;1.70;99.90;;;;;;5010678;28;20285;-75
2021/01/01 04:24:37;;;;;;;27.63;17.63;;;1.70;99.90;;;;;;5010624;28;20191;-75
2021/01/01 04:27:02;;;;;;;30.27;18.63;;;1.60;99.90;;;;;;5013137;28;20765;-75
2021/01/01 04:29:28;;;;;;;29.00;17.93;;;1.60;99.90;;;;;;5014633;28;20175;-75
2021/01/01 04:31:54;;;;;;;29.57;17.37;;;1.60;99.90;;;;;;5015714;28;20179;-75
2021/01/01 04:34:20;;;;;;;28.10;16.67;;;1.60;99.90;;;;;;4997922;28;20249;-75
2021/01/01 04:36:45;;;;;;;23.17;15.87;;;1.70;99.90;;;;;;5015462;28;20166;-75
2021/01/01 04:39:11;;;;;;;24.60;15.97;;;1.70;99.90;;;;;;5015395;28;20701;-75
2021/01/01 04:41:40;;;;;;;29.13;17.40;;;1.70;99.90;;;;;;4997628;28;20294;-75
2021/01/01 04:44:07;;;;;;;27.27;17.53;;;1.70;99.90;;;;;;5015299;28;20203;-74
2021/01/01 04:46:36;;;;;;;28.97;18.27;;;1.80;99.90;;;;;;5015503;28;20175;-75
2021/01/01 04:49:02;;;;;;;24.73;16.27;;;1.80;99.90;;;;;;5014959;28;20657;-75
2021/01/01 04:51:28;;;;;;;29.07;17.70;;;1.80;99.90;;;;;;5015170;28;20183;-75
2021/01/01 04:53:57;;;;;;;27.77;17.47;;;1.90;99.90;;;;;;5015159;28;20234;-75
2021/01/01 04:56:24;;;;;;;25.53;17.37;;;1.90;99.90;;;;;;5015212;28;20191;-75
2021/01/01 04:58:51;;;;;;;24.47;16.30;;;1.90;99.90;;;;;;5015106;28;20211;-75
2021/01/01 05:01:17;;;;;;;26.77;17.27;;;1.90;99.90;;;;;;5009687;28;20206;-75
2021/01/01 05:03:42;;;;;;;25.30;16.80;;;2.00;99.90;;;;;;5004375;28;20560;-75
2021/01/01 05:06:08;;;;;;;22.43;15.63;;;2.00;99.90;;;;;;5002738;28;20713;-75
2021/01/01 05:08:34;;;;;;;24.73;16.87;;;2.00;99.90;;;;;;5011348;28;20178;-74
2021/01/01 05:11:08;;;;;;;26.80;18.47;;;2.00;99.90;;;;;;5013910;28;20187;-75
2021/01/01 05:13:34;;;;;;;27.37;17.40;;;2.00;99.90;;;;;;5014588;28;20215;-75
2021/01/01 05:16:00;;;;;;;27.10;17.77;;;2.10;99.90;;;;;;5014300;28;20187;-75
2021/01/01 05:18:28;;;;;;;27.20;18.10;;;2.10;99.90;;;;;;4996943;28;20253;-74
2021/01/01 05:20:58;;;;;;;30.30;19.47;;;2.10;99.90;;;;;;5014517;28;20201;-75
2021/01/01 05:23:28;;;;;;;28.07;18.83;;;2.10;99.90;;;;;;5014461;28;20534;-74
2021/01/01 05:26:14;;;;;;;30.63;19.67;;;2.10;99.90;;;;;;5014803;28;20224;-74
2021/01/01 05:28:49;;;;;;;28.90;18.73;;;2.00;99.90;;;;;;5014501;28;20179;-76
2021/01/01 05:31:27;;;;;;;30.50;18.73;;;2.00;99.90;;;;;;5014413;28;20237;-75
2021/01/01 05:33:56;;;;;;;26.13;17.77;;;2.00;99.90;;;;;;5014289;28;20690;-75
2021/01/01 05:36:51;;;;;;;25.67;17.57;;;2.00;99.90;;;;;;5014282;28;20203;-75
2021/01/01 05:39:16;;;;;;;29.37;18.37;;;2.10;99.90;;;;;;4995678;28;20203;-74
2021/01/01 05:41:45;;;;;;;27.67;17.90;;;2.10;99.90;;;;;;5013280;28;20191;-75
2021/01/01 05:44:12;;;;;;;25.97;17.47;;;2.10;99.90;;;;;;5014179;28;20273;-75
2021/01/01 05:46:54;;;;;;;26.90;17.37;;;2.10;99.90;;;;;;5016657;28;20171;-75
2021/01/01 05:49:20;;;;;;;25.47;17.40;;;2.10;99.90;;;;;;4996619;28;20183;-75
2021/01/01 05:52:04;;;;;;;22.87;15.60;;;2.00;99.90;;;;;;5014361;28;20186;-74
2021/01/01 05:54:30;;;;;;;25.03;16.83;;;2.00;99.90;;;;;;5014036;28;20273;-75
2021/01/01 05:56:56;;;;;;;22.70;16.03;;;2.00;99.90;;;;;;5014252;28;20822;-75
2021/01/01 05:59:25;;;;;;;26.30;17.23;;;2.00;99.90;;;;;;5014026;28;20277;-75
2021/01/01 06:01:55;;;;;;;28.10;17.63;;;2.00;99.90;;;;;;5013391;28;20205;-75
2021/01/01 06:04:22;;;;;;;28.60;17.90;;;2.00;99.90;;;;;;5013823;28;20198;-75
2021/01/01 06:06:51;;;;;;;24.10;16.20;;;2.00;99.90;;;;;;5013816;28;20186;-74
2021/01/01 06:09:19;;;;;;;27.07;17.57;;;2.00;99.90;;;;;;5014323;28;20186;-75
2021/01/01 06:11:59;;;;;;;26.80;17.57;;;2.00;99.90;;;;;;5013716;28;20546;-75
2021/01/01 06:14:35;;;;;;;25.90;16.73;;;2.00;99.90;;;;;;5013706;28;20219;-75
2021/01/01 06:17:15;;;;;;;24.87;17.20;;;2.00;99.90;;;;;;5013568;28;20261;-75
2021/01/01 06:20:00;;;;;;;22.27;15.57;;;2.00;99.90;;;;;;5013908;28;20190;-75
2021/01/01 06:22:28;;;;;;;27.37;17.67;;;2.00;99.90;;;;;;5013752;28;20183;-75
2021/01/01 06:25:01;;;;;;;28.80;18.03;;;2.00;99.90;;;;;;5013444;28;20195;-75
2021/01/01 06:27:31;;;;;;;26.67;17.77;;;2.00;99.90;;;;;;5010353;28;20182;-75
2021/01/01 06:30:09;;;;;;;23.27;16.03;;;1.90;99.90;;;;;;5013487;28;20211;-75
2021/01/01 06:32:35;;;;;;;28.93;17.80;;;1.90;99.90;;;;;;5013300;28;20175;-75
2021/01/01 06:35:18;;;;;;;26.60;18.07;;;1.90;99.90;;;;;;5013236;28;20984;-75
2021/01/01 06:37:47;;;;;;;26.63;17.50;;;1.90;99.90;;;;;;4995354;28;20207;-75
2021/01/01 06:40:22;;;;;;;28.87;17.70;;;1.90;99.90;;;;;;5012990;28;20175;-75
2021/01/01 06:43:06;;;;;;;28.43;18.23;;;1.90;99.90;;;;;;5013106;28;20187;-75
2021/01/01 06:45:45;;;;;;;26.07;17.00;;;1.90;99.90;;;;;;5013116;28;20229;-75
2021/01/01 06:48:11;;;;;;;26.97;16.60;;;1.90;99.90;;;;;;4995392;28;20182;-75
2021/01/01 06:50:42;;;;;;;27.53;17.73;;;1.90;99.90;;;;;;5012990;28;20179;-75
2021/01/01 06:53:13;;;;;;;24.20;16.00;;;1.90;99.90;;;;;;5012898;28;20532;-75
2021/01/01 06:55:46;;;;;;;22.43;15.53;;;2.00;99.90;;;;;;5012460;28;20251;-75
2021/01/01 06:58:14;;;;;;;26.70;16.90;;;1.90;99.90;;;;;;5012877;28;20712;-75
2021/01/01 07:00:49;;;;;;;24.07;16.60;;;1.90;99.90;;;;;;5013111;28;20238;-75
2021/01/01 07:03:40;;;;;;;28.40;17.23;;;1.90;99.90;;;;;;5012701;28;20266;-74
2021/01/01 07:06:05;;;;;;;26.43;17.87;;;1.80;99.90;;;;;;5012915;28;20603;-75
2021/01/01 07:08:43;;;;;;;28.37;18.57;;;1.80;99.90;;;;;;5012738;28;20271;-75
2021/01/01 07:11:11;;;;;;;25.10;17.07;;;1.80;99.90;;;;;;5012734;28;20174;-75
2021/01/01 07:13:54;;;;;;;25.73;17.33;;;1.80;99.90;;;;;;5012522;28;20584;-75
2021/01/01 07:16:22;;;;;;;27.50;17.50;;;1.80;99.90;;;;;;5012727;28;20274;-75
2021/01/01 07:18:49;;;;;;;26.80;16.63;;;1.70;99.90;;;;;;5011923;28;20179;-74
2021/01/01 07:21:16;;;;;;;28.27;17.77;;;1.70;99.90;;;;;;5010284;28;20203;-75
2021/01/01 07:23:43;;;;;;;27.03;17.80;;;1.80;99.90;;;;;;5012321;28;20202;-75
2021/01/01 07:26:10;;;;;;;25.20;16.57;;;1.80;99.90;;;;;;4994887;28;20221;-74
2021/01/01 07:28:39;;;;;;;24.20;15.50;;;1.80;99.90;;;;;;5012520;28;20172;-75
2021/01/01 07:31:06;;;;;;;21.53;15.47;;;1.90;99.90;;;;;;5012075;28;20183;-75
2021/01/01 07:33:33;;;;;;;22.53;16.17;;;1.90;99.90;;;;;;5012215;28;20235;-74
2021/01/01 07:36:09;;;;;;;23.43;16.33;;;1.90;99.90;;;;;;5014559;28;20193;-76
2021/01/01 07:38:44;;;;;;;22.57;16.40;;;2.00;99.90;;;;;;5014829;28;20545;-74
2021/01/01 07:41:10;;;;;;;30.47;18.23;;;2.00;99.90;;;;;;5017261;28;20211;-75
2021/01/01 07:43:38;;;;;;;27.67;17.50;;;2.00;99.90;;;;;;5011624;28;20217;-76
2021/01/01 07:46:08;;;;;;;23.57;16.63;;;2.00;99.90;;;;;;5011846;28;20171;-75
2021/01/01 07:48:35;;;;;;;24.33;16.73;;;2.10;99.90;;;;;;5012012;28;20187;-74
2021/01/01 07:51:09;;;;;;;23.83;16.53;;;2.10;99.90;;;;;;5011730;28;20653;-76
2021/01/01 07:53:37;;;;;;;29.00;18.53;;;2.10;99.90;;;;;;5011641;28;20245;-75
2021/01/01 07:56:06;;;;;;;30.30;19.53;;;2.10;99.90;;;;;;5011826;28;20657;-75
2021/01/01 07:58:33;;;;;;;30.60;19.47;;;2.10;99.90;;;;;;5012122;28;20654;-75
2021/01/01 08:01:07;;;;;;;32.30;20.13;;;2.10;99.90;;;;;;4995408;28;20201;-75
2021/01/01 08:03:34;;;;;;;30.00;19.77;;;2.10;99.90;;;;;;5016023;28;20182;-75
2021/01/01 08:06:01;;;;;;;34.30;20.40;;;2.10;99.90;;;;;;4998539;28;20183;-75
2021/01/01 08:08:27;;;;;;;32.70;19.93;;;2.10;99.90;;;;;;4998394;28;20179;-75
2021/01/01 08:10:56;;;;;;;37.00;20.70;;;2.10;99.90;;;;;;5015923;28;20657;-75
2021/01/01 08:13:30;;;;;;;31.00;19.30;;;2.10;99.90;;;;;;5015678;28;20196;-75
2021/01/01 08:15:57;;;;;;;29.23;18.53;;;2.10;99.90;;;;;;5015924;28;20179;-75
2021/01/01 08:18:27;;;;;;;30.93;18.80;;;2.20;99.90;;;;;;5015981;28;20548;-75
2021/01/01 08:20:57;;;;;;;28.53;19.03;;;2.20;99.90;;;;;;4998074;28;20198;-75
2021/01/01 08:23:24;;;;;;;28.80;18.03;;;2.30;99.90;;;;;;5015951;28;20183;-75
2021/01/01 08:25:51;;;;;;;25.23;16.80;;;2.20;99.90;;;;;;5015752;28;20184;-75
2021/01/01 08:28:25;;;;;;;25.23;17.27;;;2.20;99.90;;;;;;5015750;28;20179;-75
2021/01/01 08:31:00;;;;;;;25.80;18.10;;;2.20;99.90;;;;;;5015883;28;20273;-75
2021/01/01 08:33:30;;;;;;;26.87;18.13;;;2.20;99.90;;;;;;5015663;28;20892;-75
2021/01/01 08:36:08;;;;;;;29.50;18.47;;;2.20;99.90;;;;;;5015818;28;20183;-75
2021/01/01 08:38:36;;;;;;;28.93;19.20;;;2.20;99.90;;;;;;5015494;28;20229;-75
2021/01/01 08:41:02;;;;;;;31.57;18.83;;;2.20;99.90;;;;;;5015619;28;20215;-74
2021/01/01 08:43:29;;;;;;;28.90;18.90;;;2.20;99.90;;;;;;5015566;28;20175;-75
2021/01/01 08:45:56;;;;;;;27.57;18.33;;;2.20;99.90;;;;;;5015664;28;20180;-75
2021/01/01 08:48:28;;;;;;;28.23;18.10;;;2.20;99.90;;;;;;5015555;28;20183;-75
2021/01/01 08:50:54;;;;;;;27.50;18.17;;;2.20;99.90;;;;;;5015541;28;20669;-75
2021/01/01 08:53:20;;;;;;;25.80;17.73;;;2.30;99.90;;;;;;5015358;28;20188;-75
2021/01/01 08:56:00;;;;;;;28.70;17.97;;;2.30;99.90;;;;;;5015175;28;20654;-75
2021/01/01 08:58:26;;;;;;;28.23;18.00;;;2.30;99.90;;;;;;5013513;28;20215;-75
2021/01/01 09:00:52;;;;;;;27.07;17.77;;;2.30;99.90;;;;;;5015054;28;20608;-75
2021/01/01 09:03:22;;;;;;;26.23;17.63;;;2.40;99.90;;;;;;5014855;28;20638;-75
2021/01/01 09:05:53;;;;;;;23.77;16.70;;;2.40;99.90;;;;;;5015025;28;20588;-75
2021/01/01 09:08:22;;;;;;;23.40;16.60;;;2.40;99.90;;;;;;4997188;28;20171;-76
2021/01/01 09:10:49;;;;;;;25.07;16.20;;;2.40;99.90;;;;;;5014013;28;20180;-75
2021/01/01 09:13:31;;;;;;;22.83;16.07;;;2.40;99.90;;;;;;5013604;28;20184;-75
2021/01/01 09:16:08;;;;;;;25.47;16.40;;;2.40;99.90;;;;;;5014910;28;20183;-75
2021/01/01 09:18:34;;;;;;;21.13;14.83;;;2.40;99.90;;;;;;5013914;28;20187;-75
2021/01/01 09:21:09;;;;;;;22.20;15.20;;;2.40;99.90;;;;;;5014429;28;20206;-75
2021/01/01 09:23:36;;;;;;;23.27;15.87;;;2.40;99.90;;;;;;5014426;28;20192;-75
2021/01/01 09:26:02;;;;;;;24.20;15.67;;;2.30;99.90;;;;;;5014484;28;20184;-75
2021/01/01 09:28:29;;;;;;;25.30;15.57;;;2.30;99.90;;;;;;5014757;28;20579;-75
2021/01/01 09:30:55;;;;;;;23.23;15.43;;;2.30;99.90;;;;;;5014719;28;20179;-75
2021/01/01 09:33:21;;;;;;;19.83;14.37;;;2.30;99.90;;;;;;5014376;28;20175;-75
2021/01/01 09:35:47;;;;;;;22.77;15.20;;;2.30;99.90;;;;;;5018630;28;20241;-74
2021/01/01 09:38:13;;;;;;;23.70;15.50;;;2.30;99.90;;;;;;5019863;28;20183;-75
2021/01/01 09:40:38;;;;;;;25.00;15.73;;;2.30;99.90;;;;;;5023676;28;20231;-76
2021/01/01 09:43:05;;;;;;;23.73;16.47;;;2.30;99.90;;;;;;5014230;28;20241;-75
2021/01/01 09:45:36;;;;;;;21.77;15.43;;;2.30;99.90;;;;;;5014464;28;20194;-75
2021/01/01 09:48:02;;;;;;;22.77;15.03;;;2.40;99.90;;;;;;5014069;28;20199;-74
2021/01/01 09:50:28;;;;;;;25.73;16.03;;;2.30;99.90;;;;;;5014432;28;20195;-76
2021/01/01 09:52:54;;;;;;;21.93;15.47;;;2.30;99.90;;;;;;5014294;28;20191;-75
2021/01/01 09:55:21;;;;;;;21.70;14.50;;;2.30;99.90;;;;;;5013845;28;20195;-75
2021/01/01 09:57:47;;;;;;;23.67;15.73;;;2.30;99.90;;;;;;5014250;28;20187;-74
2021/01/01 10:00:18;;;;;;;22.70;15.27;;;2.30;99.90;;;;;;5014046;28;20179;-75
2021/01/01 10:02:44;;;;;;;20.07;14.63;;;2.30;99.90;;;;;;5013323;28;20179;-75
2021/01/01 10:05:11;;;;;;;22.80;15.07;;;2.30;99.90;;;;;;5012818;28;20210;-75
2021/01/01 10:07:37;;;;;;;17.20;13.50;;;2.30;99.90;;;;;;5013551;28;20198;-75
2021/01/01 10:10:05;;;;;;;21.17;14.93;;;2.30;99.90;;;;;;5013452;28;20262;-74
2021/01/01 10:12:31;;;;;;;22.53;15.47;;;2.30;99.90;;;;;;5013848;28;20538;-75
2021/01/01 10:14:58;;;;;;;23.40;16.43;;;2.30;99.90;;;;;;5013511;28;20238;-75
2021/01/01 10:17:28;;;;;;;25.13;17.00;;;2.30;99.90;;;;;;5013503;28;20186;-75
2021/01/01 10:19:54;;;;;;;24.90;16.33;;;2.30;99.90;;;;;;5006549;28;20190;-75
2021/01/01 10:22:20;;;;;;;26.43;16.30;;;2.30;99.90;;;;;;5000418;28;20229;-75
2021/01/01 10:24:47;;;;;;;24.50;16.03;;;2.40;99.90;;;;;;5009207;28;20675;-75
2021/01/01 10:27:15;;;;;;;28.07;17.43;;;2.40;99.90;;;;;;5001999;28;20920;-76
2021/01/01 10:29:41;;;;;;;25.07;17.30;;;2.40;99.90;;;;;;5003881;28;20186;-75
2021/01/01 10:32:08;;;;;;;27.60;17.63;;;2.40;99.90;;;;;;5006631;28;20663;-76
2021/01/01 10:34:35;;;;;;;25.03;16.97;;;2.40;99.90;;;;;;5002490;28;20205;-75
2021/01/01 10:37:01;;;;;;;25.83;18.13;;;2.50;99.90;;;;;;5007824;28;20183;-76
2021/01/01 10:39:27;;;;;;;25.67;16.80;;;2.50;99.90;;;;;;5009124;28;20671;-76
2021/01/01 10:41:53;;;;;;;29.20;19.00;;;2.50;99.90;;;;;;5006553;28;20213;-75
2021/01/01 10:44:19;;;;;;;29.43;18.77;;;2.50;99.90;;;;;;5008662;28;20294;-74
2021/01/01 10:46:54;;;;;;;28.20;17.63;;;2.60;99.90;;;;;;5006408;28;20179;-76
2021/01/01 10:49:23;;;;;;;28.87;19.30;;;2.60;99.90;;;;;;5005667;28;20182;-74
2021/01/01 10:51:50;;;;;;;27.77;18.40;;;2.60;99.90;;;;;;5007841;28;20191;-75
2021/01/01 10:54:16;;;;;;;30.07;18.77;;;2.60;99.90;;;;;;5001765;28;20216;-75
2021/01/01 10:56:45;;;;;;;28.47;18.23;;;2.70;99.90;;;;;;5008030;28;20659;-76
2021/01/01 10:59:10;;;;;;;30.77;19.17;;;2.70;99.90;;;;;;4988712;28;20591;-76
2021/01/01 11:01:37;;;;;;;30.00;18.70;;;2.70;99.90;;;;;;5001612;28;20583;-75
2021/01/01 11:04:03;;;;;;;28.13;17.47;;;2.70;99.90;;;;;;4990853;28;20223;-75
2021/01/01 11:06:29;;;;;;;25.97;17.47;;;2.80;99.90;;;;;;4997282;28;20190;-75
2021/01/01 11:08:54;;;;;;;29.63;18.93;;;2.90;99.90;;;;;;4984515;28;20187;-76
2021/01/01 11:11:21;;;;;;;30.37;19.63;;;2.90;99.90;;;;;;5006689;28;20629;-74
2021/01/01 11:13:51;;;;;;;28.20;18.07;;;2.90;99.90;;;;;;4996962;28;20224;-75
2021/01/01 12:22:27;;;;;;;21.17;13.40;;;3.50;99.90;;;;;;4997463;28;20207;-76
2021/01/01 12:24:54;;;;;;;18.83;13.53;;;3.40;99.90;;;;;;5001393;28;20286;-75
2021/01/01 12:27:25;;;;;;;21.73;15.27;;;3.40;99.90;;;;;;5006173;28;20179;-76
2021/01/01 12:29:52;;;;;;;19.33;13.60;;;3.50;99.90;;;;;;4993616;28;20974;-75
2021/01/01 12:32:19;;;;;;;19.33;14.67;;;3.40;99.90;;;;;;4992913;28;20589;-76
2021/01/01 12:34:46;;;;;;;21.17;13.73;;;3.40;99.90;;;;;;4999851;28;20226;-76
2021/01/01 12:37:12;;;;;;;24.17;15.73;;;3.50;99.90;;;;;;5001649;28;20275;-76
2021/01/01 12:39:39;;;;;;;22.57;15.97;;;3.50;99.90;;;;;;5009421;28;20628;-74
2021/01/01 12:42:05;;;;;;;24.30;16.13;;;3.50;99.90;;;;;;5007783;28;20200;-76
2021/01/01 12:44:31;;;;;;;19.07;13.50;;;3.50;99.90;;;;;;5005076;28;20282;-76
2021/01/01 12:46:59;;;;;;;19.43;13.27;;;3.50;99.90;;;;;;5007315;28;20657;-76
2021/01/01 12:49:25;;;;;;;22.60;14.87;;;3.50;99.90;;;;;;5009331;28;20185;-75
2021/01/01 12:51:51;;;;;;;24.03;16.47;;;3.50;99.90;;;;;;5011784;28;20178;-76
2021/01/01 12:54:17;;;;;;;24.80;16.43;;;3.50;99.90;;;;;;5007227;28;20206;-75
2021/01/01 12:56:43;;;;;;;17.63;12.73;;;3.60;99.90;;;;;;5006919;28;20259;-76
2021/01/01 12:59:09;;;;;;;10.40;9.23;;;3.60;99.90;;;;;;4998308;28;20196;-76
2021/01/01 13:01:35;;;;;;;6.90;6.20;;;3.60;99.90;;;;;;5007049;28;20574;-74
2021/01/01 13:04:02;;;;;;;4.97;4.57;;;3.60;99.90;;;;;;5012133;28;20257;-77
2021/01/01 13:06:28;;;;;;;5.47;4.87;;;3.60;99.90;;;;;;5004158;28;20267;-76
2021/01/01 13:08:57;;;;;;;4.83;4.33;;;3.60;99.90;;;;;;5007029;28;20266;-75
2021/01/01 13:11:25;;;;;;;4.93;4.53;;;3.70;99.90;;;;;;5010868;28;20650;-75
2021/01/01 13:13:51;;;;;;;4.63;4.23;;;3.70;99.90;;;;;;4992826;28;20218;-76
2021/01/01 13:16:28;;;;;;;4.97;3.90;;;3.60;99.90;;;;;;5010817;28;20572;-75
2021/01/01 13:18:54;;;;;;;4.73;3.57;;;3.60;99.90;;;;;;4993345;28;20691;-75
2021/01/01 13:21:27;;;;;;;4.43;3.67;;;3.70;99.90;;;;;;4992040;28;20200;-75
2021/01/01 13:23:54;;;;;;;5.03;3.90;;;3.70;99.90;;;;;;5010500;28;20206;-75
2021/01/01 13:26:22;;;;;;;5.60;4.93;;;3.70;99.90;;;;;;5011267;28;20175;-75
2021/01/01 13:28:48;;;;;;;5.13;4.63;;;3.70;99.90;;;;;;5007628;28;20237;-75
2021/01/01 13:31:15;;;;;;;6.30;4.40;;;3.70;99.90;;;;;;5005092;28;20639;-75
2021/01/01 13:33:42;;;;;;;3.93;3.63;;;3.60;99.90;;;;;;5007957;28;20736;-75
2021/01/01 13:36:19;;;;;;;4.73;4.33;;;3.60;99.90;;;;;;5003607;28;20258;-76
2021/01/01 13:38:46;;;;;;;3.97;3.67;;;3.60;99.90;;;;;;5003245;28;20630;-76
2021/01/01 13:41:13;;;;;;;3.43;3.13;;;3.60;99.90;;;;;;5010047;28;20205;-76
2021/01/01 13:43:43;;;;;;;5.27;4.07;;;3.60;99.90;;;;;;5005303;28;20326;-76
2021/01/01 13:46:09;;;;;;;3.63;3.33;;;3.60;99.90;;;;;;4997436;28;20674;-76
2021/01/01 13:48:36;;;;;;;4.83;4.43;;;3.60;99.90;;;;;;4994077;28;20669;-76
2021/01/01 13:51:03;;;;;;;3.93;3.63;;;3.60;99.90;;;;;;4996975;28;20180;-76